M I D A S
Marine Information and Data Acquisition System
Tripno 1196 of the Zeeleeuw from 2006-11-27 08:23:47 to 2006-11-27 14:41:10
Back to CruiseResearch ActivitiesStationsMapUnderway DataData graphs

EquipmentUnitsComment
TimeDGPSUTC
LatitudeDGPSDM.mWGS84
LongitudeDGPSDM.mWGS84
HeadingGyrodeg 
SOGDGPSknotsSpeed over ground
COGDGPSdegCourse over ground
DepthEcho soundermeters200 kHz
Missing or incorrect values are displayed as -999
Navigation data collected by the RV Zeeleeuw from 2006-11-27 06:59:38 to 2006-11-27 14:41:10
                                                                                    Next 1000 lines
Time Latitude Longitude Heading SOG COG Depth
2006-11-27 06:59:48 51°13.598 2°56.094 125.9 0.1 294 -999
2006-11-27 06:59:53 51°13.598 2°56.094 125.4 0.1 8 -999
2006-11-27 06:59:58 51°13.598 2°56.094 124.9 -999 200 -999
2006-11-27 07:00:03 51°13.598 2°56.094 124.9 -999 143 -999
2006-11-27 07:00:08 51°13.598 2°56.094 125.3 0.1 137 -999
2006-11-27 07:00:13 51°13.598 2°56.095 125.5 0.1 126 -999
2006-11-27 07:00:18 51°13.598 2°56.095 125.9 0.2 151 -999
2006-11-27 07:00:23 51°13.598 2°56.095 126.5 0.1 128 -999
2006-11-27 07:00:28 51°13.597 2°56.095 127 0.1 146 -999
2006-11-27 07:00:33 51°13.597 2°56.095 127.3 -999 90 -999
2006-11-27 07:00:38 51°13.597 2°56.095 127.5 -999 330 -999
2006-11-27 07:00:43 51°13.598 2°56.095 127.5 -999 312 -999
2006-11-27 07:00:48 51°13.598 2°56.095 127.5 0.1 317 -999
2006-11-27 07:00:53 51°13.598 2°56.095 127.3 0.1 301 -999
2006-11-27 07:00:58 51°13.598 2°56.094 126.8 0.1 310 -999
2006-11-27 07:01:03 51°13.598 2°56.094 126.6 0.1 312 -999
2006-11-27 07:01:08 51°13.598 2°56.094 126.2 0.1 268 -999
2006-11-27 07:01:13 51°13.598 2°56.094 125.8 -999 334 -999
2006-11-27 07:01:18 51°13.598 2°56.094 125.4 -999 243 -999
2006-11-27 07:01:23 51°13.598 2°56.094 125.4 -999 181 -999
2006-11-27 07:01:28 51°13.598 2°56.094 125.4 -999 111 -999
2006-11-27 07:01:33 51°13.598 2°56.094 125.5 0.1 146 -999
2006-11-27 07:01:38 51°13.598 2°56.094 125.6 0.1 128 -999
2006-11-27 07:01:43 51°13.598 2°56.094 125.9 0.1 136 -999
2006-11-27 07:01:48 51°13.598 2°56.094 126.3 0.1 134 -999
2006-11-27 07:01:53 51°13.598 2°56.095 126.7 0.1 118 -999
2006-11-27 07:01:58 51°13.598 2°56.095 127.1 0.1 191 -999
2006-11-27 07:02:03 51°13.598 2°56.094 127.5 0.1 317 -999
2006-11-27 07:02:08 51°13.598 2°56.094 127.5 0.1 307 -999
2006-11-27 07:02:13 51°13.598 2°56.094 127.3 0.1 313 -999
2006-11-27 07:02:18 51°13.598 2°56.093 127 0.2 310 -999
2006-11-27 07:02:23 51°13.598 2°56.093 126.4 0.1 304 -999
2006-11-27 07:02:28 51°13.599 2°56.093 125.7 0.1 312 -999
2006-11-27 07:02:33 51°13.599 2°56.093 125 0.1 346 -999
2006-11-27 07:02:38 51°13.598 2°56.093 124.8 0.1 160 -999
2006-11-27 07:02:43 51°13.598 2°56.093 124.8 0.1 131 -999
2006-11-27 07:02:48 51°13.598 2°56.094 125.2 0.1 132 -999
2006-11-27 07:02:53 51°13.598 2°56.094 125.6 0.2 129 -999
2006-11-27 07:02:58 51°13.598 2°56.094 126.3 0.2 136 -999
2006-11-27 07:03:03 51°13.598 2°56.095 126.8 0.1 121 -999
2006-11-27 07:03:08 51°13.598 2°56.095 127.3 0.1 169 -999
2006-11-27 07:03:13 51°13.598 2°56.095 127.8 -999 243 -999
2006-11-27 07:03:18 51°13.598 2°56.094 127.8 0.1 318 -999
2006-11-27 07:03:23 51°13.598 2°56.094 127.7 0.1 275 -999
2006-11-27 07:03:28 51°13.598 2°56.094 127.3 0.2 330 -999
2006-11-27 07:03:33 51°13.598 2°56.094 126.9 0.2 298 -999
2006-11-27 07:03:38 51°13.599 2°56.093 126.5 0.1 308 -999
2006-11-27 07:03:43 51°13.599 2°56.093 125.9 0.1 308 -999
2006-11-27 07:03:48 51°13.599 2°56.093 125.1 0.1 328 -999
2006-11-27 07:03:53 51°13.599 2°56.094 124.8 -999 170 -999
2006-11-27 07:03:58 51°13.599 2°56.094 124.8 0.1 135 -999
2006-11-27 07:04:03 51°13.599 2°56.094 125 0.1 134 -999
2006-11-27 07:04:08 51°13.599 2°56.094 125.5 0.2 135 -999
2006-11-27 07:04:13 51°13.599 2°56.094 126 0.2 127 -999
2006-11-27 07:04:18 51°13.598 2°56.095 126.6 0.2 128 -999
2006-11-27 07:04:23 51°13.598 2°56.094 127 0.1 152 -999
2006-11-27 07:04:28 51°13.598 2°56.094 127.6 0.1 268 -999
2006-11-27 07:04:33 51°13.598 2°56.094 127.7 0.1 284 -999
2006-11-27 07:04:38 51°13.598 2°56.094 127.7 0.1 316 -999
2006-11-27 07:04:43 51°13.598 2°56.094 127.4 0.1 294 -999
2006-11-27 07:04:48 51°13.599 2°56.094 127.1 0.1 328 -999
2006-11-27 07:04:53 51°13.599 2°56.094 126.8 0.1 306 -999
2006-11-27 07:04:58 51°13.599 2°56.094 126.5 0.1 310 -999
2006-11-27 07:05:03 51°13.599 2°56.093 126.2 0.1 266 -999
2006-11-27 07:05:08 51°13.599 2°56.093 125.6 0.1 348 -999
2006-11-27 07:05:13 51°13.599 2°56.093 125.3 -999 246 -999
2006-11-27 07:05:18 51°13.599 2°56.093 125.3 -999 151 -999
2006-11-27 07:05:23 51°13.599 2°56.094 125.3 0.1 123 -999
2006-11-27 07:05:28 51°13.599 2°56.094 125.5 0.1 130 -999
2006-11-27 07:05:33 51°13.599 2°56.094 125.6 0.1 149 -999
2006-11-27 07:05:38 51°13.599 2°56.094 126 0.1 129 -999
2006-11-27 07:05:43 51°13.599 2°56.094 126.3 0.1 133 -999
2006-11-27 07:05:48 51°13.599 2°56.094 126.6 0.1 126 -999
2006-11-27 07:05:53 51°13.599 2°56.094 126.9 0.1 127 -999
2006-11-27 07:05:58 51°13.599 2°56.094 127.1 0.1 159 -999
2006-11-27 07:06:03 51°13.599 2°56.094 127.4 -999 169 -999
2006-11-27 07:06:08 51°13.599 2°56.094 127.5 -999 281 -999
2006-11-27 07:06:13 51°13.599 2°56.094 127.6 0.1 308 -999
2006-11-27 07:06:18 51°13.599 2°56.094 127.4 0.1 314 -999
2006-11-27 07:06:23 51°13.599 2°56.094 127 0.2 296 -999
2006-11-27 07:06:28 51°13.599 2°56.094 126.8 0.1 318 -999
2006-11-27 07:06:33 51°13.599 2°56.094 126.2 0.1 273 -999
2006-11-27 07:06:38 51°13.599 2°56.094 125.6 0.1 336 -999
2006-11-27 07:06:43 51°13.599 2°56.094 125.2 -999 304 -999
2006-11-27 07:06:48 51°13.599 2°56.094 125.1 -999 165 -999
2006-11-27 07:06:53 51°13.599 2°56.094 125.1 0.1 151 -999
2006-11-27 07:06:58 51°13.599 2°56.094 125.2 0.1 125 -999
2006-11-27 07:07:03 51°13.599 2°56.094 125.5 0.1 139 -999
2006-11-27 07:07:08 51°13.599 2°56.095 126 0.1 120 -999
2006-11-27 07:07:13 51°13.599 2°56.095 126.4 0.2 136 -999
2006-11-27 07:07:18 51°13.599 2°56.095 126.8 0.1 147 -999
2006-11-27 07:07:23 51°13.599 2°56.095 127.5 -999 225 -999
2006-11-27 07:07:28 51°13.599 2°56.095 127.5 0.1 287 -999
2006-11-27 07:07:33 51°13.599 2°56.095 127.5 0.1 287 -999
2006-11-27 07:07:38 51°13.599 2°56.095 127.2 0.1 311 -999
2006-11-27 07:07:43 51°13.599 2°56.094 126.6 0.2 307 -999
2006-11-27 07:07:48 51°13.599 2°56.094 126.2 0.2 303 -999
2006-11-27 07:07:53 51°13.599 2°56.094 125.5 0.1 320 -999
2006-11-27 07:07:58 51°13.599 2°56.094 124.8 -999 120 -999
2006-11-27 07:08:03 51°13.599 2°56.094 124.7 0.1 152 -999
2006-11-27 07:08:08 51°13.599 2°56.094 124.9 0.1 130 -999
2006-11-27 07:08:13 51°13.599 2°56.095 125.5 0.2 134 -999
2006-11-27 07:08:18 51°13.599 2°56.095 126 0.2 124 -999
2006-11-27 07:08:23 51°13.599 2°56.095 126.7 0.2 147 -999
2006-11-27 07:08:28 51°13.599 2°56.095 127.2 0.1 115 -999
2006-11-27 07:08:33 51°13.599 2°56.095 127.7 -999 202 -999
2006-11-27 07:08:38 51°13.599 2°56.095 127.8 0.1 292 -999
2006-11-27 07:08:43 51°13.599 2°56.095 127.8 0.1 294 -999
2006-11-27 07:08:48 51°13.599 2°56.094 127.6 0.1 314 -999
2006-11-27 07:08:53 51°13.599 2°56.094 127.3 0.1 313 -999
2006-11-27 07:08:58 51°13.599 2°56.094 127.1 0.1 298 -999
2006-11-27 07:09:03 51°13.599 2°56.094 126.9 0.1 308 -999
2006-11-27 07:09:08 51°13.599 2°56.094 126.3 0.1 301 -999
2006-11-27 07:09:13 51°13.599 2°56.094 125.9 0.1 312 -999
2006-11-27 07:09:18 51°13.599 2°56.094 125.4 0.1 310 -999
2006-11-27 07:09:23 51°13.599 2°56.094 125 -999 216 -999
2006-11-27 07:09:28 51°13.599 2°56.094 124.9 0.1 145 -999
2006-11-27 07:09:33 51°13.599 2°56.094 125 0.1 146 -999
2006-11-27 07:09:38 51°13.599 2°56.094 125.4 0.1 132 -999
2006-11-27 07:09:43 51°13.599 2°56.094 125.8 0.1 127 -999
2006-11-27 07:09:48 51°13.599 2°56.094 126.2 0.2 133 -999
2006-11-27 07:09:53 51°13.599 2°56.095 126.9 0.1 131 -999
2006-11-27 07:09:58 51°13.599 2°56.095 127.5 0.1 169 -999
2006-11-27 07:10:03 51°13.599 2°56.095 127.8 -999 251 -999
2006-11-27 07:10:08 51°13.599 2°56.095 127.8 -999 310 -999
2006-11-27 07:10:13 51°13.599 2°56.094 127.8 0.1 317 -999
2006-11-27 07:10:18 51°13.599 2°56.094 127.7 0.1 312 -999
2006-11-27 07:10:23 51°13.599 2°56.094 127.4 0.1 304 -999
2006-11-27 07:10:28 51°13.599 2°56.094 127 0.1 316 -999
2006-11-27 07:10:33 51°13.599 2°56.094 126.8 0.1 301 -999
2006-11-27 07:10:38 51°13.599 2°56.094 126.3 0.1 278 -999
2006-11-27 07:10:43 51°13.599 2°56.094 125.7 -999 323 -999
2006-11-27 07:10:48 51°13.599 2°56.094 125.5 -999 269 -999
2006-11-27 07:10:53 51°13.599 2°56.094 125.4 -999 222 -999
2006-11-27 07:10:58 51°13.599 2°56.094 125.4 -999 152 -999
2006-11-27 07:11:03 51°13.599 2°56.094 125.5 0.1 123 -999
2006-11-27 07:11:08 51°13.599 2°56.094 125.6 0.1 150 -999
2006-11-27 07:11:13 51°13.599 2°56.094 126.1 0.1 120 -999
2006-11-27 07:11:18 51°13.599 2°56.094 126.3 0.1 132 -999
2006-11-27 07:11:23 51°13.599 2°56.094 126.8 0.1 137 -999
2006-11-27 07:11:28 51°13.599 2°56.095 127.2 0.1 147 -999
2006-11-27 07:11:33 51°13.599 2°56.094 127.4 -999 247 -999
2006-11-27 07:11:38 51°13.599 2°56.094 127.6 -999 314 -999
2006-11-27 07:11:43 51°13.599 2°56.094 127.6 0.1 297 -999
2006-11-27 07:11:48 51°13.599 2°56.094 127.3 0.1 324 -999
2006-11-27 07:11:53 51°13.599 2°56.094 126.9 0.1 300 -999
2006-11-27 07:11:58 51°13.599 2°56.094 126.5 0.1 307 -999
2006-11-27 07:12:03 51°13.599 2°56.094 126 0.1 297 -999
2006-11-27 07:12:08 51°13.599 2°56.093 125.4 0.1 333 -999
2006-11-27 07:12:13 51°13.599 2°56.093 125.1 -999 286 -999
2006-11-27 07:12:18 51°13.599 2°56.094 124.9 0.1 150 -999
2006-11-27 07:12:23 51°13.599 2°56.094 125 0.1 128 -999
2006-11-27 07:12:28 51°13.599 2°56.094 125.3 0.1 146 -999
2006-11-27 07:12:33 51°13.599 2°56.094 125.6 0.1 132 -999
2006-11-27 07:12:38 51°13.599 2°56.094 126.1 0.1 135 -999
2006-11-27 07:12:43 51°13.598 2°56.094 126.5 0.1 134 -999
2006-11-27 07:12:48 51°13.598 2°56.094 127 0.1 121 -999
2006-11-27 07:12:53 51°13.598 2°56.094 127.2 0.1 161 -999
2006-11-27 07:12:58 51°13.598 2°56.094 127.6 -999 81 -999
2006-11-27 07:13:03 51°13.598 2°56.094 127.7 -999 266 -999
2006-11-27 07:13:08 51°13.598 2°56.094 127.7 -999 325 -999
2006-11-27 07:13:13 51°13.599 2°56.094 127.7 0.1 298 -999
2006-11-27 07:13:18 51°13.599 2°56.094 127.3 0.1 307 -999
2006-11-27 07:13:23 51°13.599 2°56.094 127 0.1 313 -999
2006-11-27 07:13:28 51°13.599 2°56.094 126.5 0.1 299 -999
2006-11-27 07:13:33 51°13.599 2°56.094 126.1 0.1 292 -999
2006-11-27 07:13:38 51°13.599 2°56.094 125.5 -999 350 -999
2006-11-27 07:13:43 51°13.599 2°56.094 125.3 -999 199 -999
2006-11-27 07:13:48 51°13.599 2°56.094 125.3 -999 144 -999
2006-11-27 07:13:53 51°13.599 2°56.094 125.5 0.1 131 -999
2006-11-27 07:13:58 51°13.598 2°56.094 125.7 0.1 129 -999
2006-11-27 07:14:03 51°13.598 2°56.094 125.9 0.1 147 -999
2006-11-27 07:14:08 51°13.598 2°56.094 126.4 0.1 126 -999
2006-11-27 07:14:13 51°13.598 2°56.094 126.8 0.1 124 -999
2006-11-27 07:14:18 51°13.598 2°56.094 127 0.1 146 -999
2006-11-27 07:14:23 51°13.598 2°56.094 127.2 -999 172 -999
2006-11-27 07:14:28 51°13.598 2°56.094 127.5 -999 322 -999
2006-11-27 07:14:33 51°13.598 2°56.094 127.5 -999 307 -999
2006-11-27 07:14:38 51°13.598 2°56.094 127.5 0.1 305 -999
2006-11-27 07:14:43 51°13.598 2°56.094 127.3 0.1 312 -999
2006-11-27 07:14:48 51°13.598 2°56.094 127.2 0.1 295 -999
2006-11-27 07:14:53 51°13.598 2°56.094 127 0.1 320 -999
2006-11-27 07:14:58 51°13.598 2°56.094 126.8 0.1 297 -999
2006-11-27 07:15:03 51°13.598 2°56.094 126.5 -999 299 -999
2006-11-27 07:15:08 51°13.598 2°56.094 126.2 -999 304 -999
2006-11-27 07:15:13 51°13.598 2°56.094 126.1 -999 320 -999
2006-11-27 07:15:18 51°13.598 2°56.094 125.9 -999 262 -999
2006-11-27 07:15:23 51°13.598 2°56.094 125.9 -999 132 -999
2006-11-27 07:15:28 51°13.598 2°56.094 125.9 -999 152 -999
2006-11-27 07:15:33 51°13.598 2°56.094 125.9 -999 138 -999
2006-11-27 07:15:38 51°13.598 2°56.094 126 -999 144 -999
2006-11-27 07:15:43 51°13.598 2°56.094 126.1 -999 126 -999
2006-11-27 07:15:48 51°13.598 2°56.094 126.4 -999 129 -999
2006-11-27 07:15:53 51°13.598 2°56.094 126.5 -999 150 -999
2006-11-27 07:15:58 51°13.598 2°56.094 126.7 -999 38 -999
2006-11-27 07:16:03 51°13.598 2°56.094 126.8 -999 269 -999
2006-11-27 07:16:08 51°13.598 2°56.094 126.8 -999 308 -999
2006-11-27 07:16:13 51°13.598 2°56.094 126.7 0.1 314 -999
2006-11-27 07:16:18 51°13.599 2°56.094 126.5 -999 299 -999
2006-11-27 07:16:23 51°13.599 2°56.094 126.3 -999 288 -999
2006-11-27 07:16:28 51°13.599 2°56.094 126.1 -999 325 -999
2006-11-27 07:16:33 51°13.599 2°56.094 125.7 -999 290 -999
2006-11-27 07:16:38 51°13.599 2°56.094 125.6 -999 217 -999
2006-11-27 07:16:43 51°13.599 2°56.094 125.6 -999 142 -999
2006-11-27 07:16:48 51°13.599 2°56.094 125.6 -999 167 -999
2006-11-27 07:16:53 51°13.599 2°56.094 125.6 -999 112 -999
2006-11-27 07:16:58 51°13.599 2°56.094 125.8 -999 152 -999
2006-11-27 07:17:03 51°13.599 2°56.094 126 -999 158 -999
2006-11-27 07:17:08 51°13.599 2°56.094 126.2 -999 156 -999
2006-11-27 07:17:13 51°13.598 2°56.094 126.2 -999 167 -999
2006-11-27 07:17:18 51°13.598 2°56.094 126.3 -999 134 -999
2006-11-27 07:17:23 51°13.598 2°56.094 126.3 -999 173 -999
2006-11-27 07:17:28 51°13.598 2°56.094 126.4 -999 18 -999
2006-11-27 07:17:33 51°13.598 2°56.094 126.4 -999 297 -999
2006-11-27 07:17:38 51°13.598 2°56.094 126.4 -999 294 -999
2006-11-27 07:17:43 51°13.598 2°56.094 126.4 -999 274 -999
2006-11-27 07:17:48 51°13.598 2°56.094 126.2 -999 285 -999
2006-11-27 07:17:53 51°13.598 2°56.094 126.2 -999 290 -999
2006-11-27 07:17:58 51°13.598 2°56.094 126.1 -999 208 -999
2006-11-27 07:18:03 51°13.598 2°56.094 126 -999 146 -999
2006-11-27 07:18:08 51°13.598 2°56.094 126 -999 130 -999
2006-11-27 07:18:13 51°13.598 2°56.095 126.1 0.1 143 -999
2006-11-27 07:18:18 51°13.598 2°56.095 126.2 0.1 134 -999
2006-11-27 07:18:23 51°13.598 2°56.095 126.4 0.1 138 -999
2006-11-27 07:18:28 51°13.598 2°56.095 126.7 0.1 136 -999
2006-11-27 07:18:33 51°13.598 2°56.095 126.9 -999 106 -999
2006-11-27 07:18:38 51°13.598 2°56.095 127 -999 172 -999
2006-11-27 07:18:43 51°13.598 2°56.095 127.1 -999 182 -999
2006-11-27 07:18:48 51°13.598 2°56.095 127.2 -999 163 -999
2006-11-27 07:18:53 51°13.598 2°56.095 127.2 -999 221 -999
2006-11-27 07:18:58 51°13.598 2°56.095 127.3 -999 274 -999
2006-11-27 07:19:03 51°13.598 2°56.095 127.3 -999 289 -999
2006-11-27 07:19:08 51°13.598 2°56.095 127.3 -999 305 -999
2006-11-27 07:19:13 51°13.599 2°56.095 127.1 -999 308 -999
2006-11-27 07:19:18 51°13.599 2°56.095 127 -999 285 -999
2006-11-27 07:19:23 51°13.599 2°56.095 127 -999 303 -999
2006-11-27 07:19:28 51°13.599 2°56.095 126.8 -999 283 -999
2006-11-27 07:19:33 51°13.599 2°56.095 126.5 -999 296 -999
2006-11-27 07:19:38 51°13.599 2°56.095 126.4 -999 279 -999
2006-11-27 07:19:43 51°13.599 2°56.095 126.4 -999 335 -999
2006-11-27 07:19:48 51°13.598 2°56.095 126.3 -999 238 -999
2006-11-27 07:19:53 51°13.599 2°56.095 126.2 -999 208 -999
2006-11-27 07:19:58 51°13.599 2°56.095 126.2 -999 68 -999
2006-11-27 07:20:03 51°13.598 2°56.095 126.2 -999 217 -999
2006-11-27 07:20:08 51°13.599 2°56.094 126.3 -999 330 -999
2006-11-27 07:20:13 51°13.599 2°56.094 126.3 -999 298 -999
2006-11-27 07:20:18 51°13.599 2°56.094 126.3 -999 297 -999
2006-11-27 07:20:23 51°13.599 2°56.094 126.2 -999 316 -999
2006-11-27 07:20:28 51°13.599 2°56.094 126 -999 322 -999
2006-11-27 07:20:33 51°13.599 2°56.094 125.9 -999 324 -999
2006-11-27 07:20:38 51°13.599 2°56.094 125.9 -999 276 -999
2006-11-27 07:20:43 51°13.599 2°56.094 125.8 -999 224 -999
2006-11-27 07:20:48 51°13.599 2°56.094 125.8 -999 146 -999
2006-11-27 07:20:53 51°13.599 2°56.094 125.8 -999 143 -999
2006-11-27 07:20:58 51°13.599 2°56.094 125.8 -999 168 -999
2006-11-27 07:21:03 51°13.599 2°56.094 125.8 -999 148 -999
2006-11-27 07:21:08 51°13.599 2°56.094 126 -999 148 -999
2006-11-27 07:21:13 51°13.599 2°56.095 126.1 0.1 143 -999
2006-11-27 07:21:18 51°13.599 2°56.095 126.3 0.1 145 -999
2006-11-27 07:21:23 51°13.599 2°56.095 126.5 -999 139 -999
2006-11-27 07:21:28 51°13.598 2°56.095 126.8 -999 137 -999
2006-11-27 07:21:33 51°13.598 2°56.095 126.9 -999 145 -999
2006-11-27 07:21:38 51°13.598 2°56.095 127 -999 247 -999
2006-11-27 07:21:43 51°13.598 2°56.095 127 -999 326 -999
2006-11-27 07:21:48 51°13.598 2°56.095 127 -999 279 -999
2006-11-27 07:21:53 51°13.598 2°56.095 126.9 -999 273 -999
2006-11-27 07:21:58 51°13.598 2°56.095 126.7 -999 254 -999
2006-11-27 07:22:03 51°13.598 2°56.095 126.7 -999 246 -999
2006-11-27 07:22:08 51°13.598 2°56.095 126.5 -999 308 -999
2006-11-27 07:22:13 51°13.598 2°56.095 126.5 -999 228 -999
2006-11-27 07:22:18 51°13.598 2°56.095 126.5 -999 237 -999
2006-11-27 07:22:23 51°13.598 2°56.095 126.5 -999 128 -999
2006-11-27 07:22:28 51°13.598 2°56.095 126.5 -999 143 -999
2006-11-27 07:22:33 51°13.598 2°56.095 126.5 -999 145 -999
2006-11-27 07:22:38 51°13.598 2°56.095 126.5 -999 161 -999
2006-11-27 07:22:43 51°13.598 2°56.095 126.5 -999 159 -999
2006-11-27 07:22:48 51°13.598 2°56.095 126.6 -999 91 -999
2006-11-27 07:22:53 51°13.598 2°56.095 126.7 -999 152 -999
2006-11-27 07:22:58 51°13.598 2°56.095 126.7 -999 117 -999
2006-11-27 07:23:03 51°13.598 2°56.095 126.7 -999 268 -999
2006-11-27 07:23:08 51°13.599 2°56.095 126.8 -999 330 -999
2006-11-27 07:23:13 51°13.599 2°56.095 126.8 -999 302 -999
2006-11-27 07:23:18 51°13.599 2°56.095 126.8 -999 299 -999
2006-11-27 07:23:23 51°13.599 2°56.095 126.7 -999 285 -999
2006-11-27 07:23:28 51°13.599 2°56.095 126.6 -999 295 -999
2006-11-27 07:23:33 51°13.599 2°56.095 126.5 -999 322 -999
2006-11-27 07:23:38 51°13.599 2°56.095 126.4 -999 280 -999
2006-11-27 07:23:43 51°13.599 2°56.095 126.3 -999 309 -999
2006-11-27 07:23:48 51°13.599 2°56.095 126.2 -999 292 -999
2006-11-27 07:23:53 51°13.599 2°56.095 126.2 -999 18 -999
2006-11-27 07:23:58 51°13.599 2°56.095 126.2 -999 223 -999
2006-11-27 07:24:03 51°13.599 2°56.095 126.2 -999 42 -999
2006-11-27 07:24:08 51°13.599 2°56.095 126.2 -999 251 -999
2006-11-27 07:24:13 51°13.599 2°56.095 126.2 -999 214 -999
2006-11-27 07:24:18 51°13.599 2°56.095 126.2 -999 11 -999
2006-11-27 07:24:23 51°13.599 2°56.095 126.2 -999 247 -999
2006-11-27 07:24:28 51°13.599 2°56.095 126.2 -999 203 -999
2006-11-27 07:24:33 51°13.599 2°56.095 126.2 -999 178 -999
2006-11-27 07:24:38 51°13.599 2°56.095 126.2 -999 206 -999
2006-11-27 07:24:43 51°13.599 2°56.095 126.2 -999 289 -999
2006-11-27 07:24:48 51°13.599 2°56.095 126.2 -999 301 -999
2006-11-27 07:24:53 51°13.599 2°56.095 126.2 -999 210 -999
2006-11-27 07:24:58 51°13.599 2°56.095 126.2 -999 166 -999
2006-11-27 07:25:03 51°13.599 2°56.095 126.2 -999 132 -999
2006-11-27 07:25:08 51°13.599 2°56.094 126.2 -999 179 -999
2006-11-27 07:25:13 51°13.599 2°56.094 126.2 -999 159 -999
2006-11-27 07:25:18 51°13.599 2°56.094 126.2 -999 183 -999
2006-11-27 07:25:23 51°13.599 2°56.094 126.2 -999 180 -999
2006-11-27 07:25:28 51°13.599 2°56.094 126.2 -999 157 -999
2006-11-27 07:25:33 51°13.599 2°56.095 126.2 -999 160 -999
2006-11-27 07:25:38 51°13.599 2°56.095 126.3 -999 163 -999
2006-11-27 07:25:43 51°13.599 2°56.095 126.3 -999 147 -999
2006-11-27 07:25:48 51°13.599 2°56.095 126.4 -999 152 -999
2006-11-27 07:25:53 51°13.599 2°56.095 126.4 -999 139 -999
2006-11-27 07:25:58 51°13.599 2°56.095 126.4 -999 196 -999
2006-11-27 07:26:03 51°13.599 2°56.095 126.5 -999 268 -999
2006-11-27 07:26:08 51°13.599 2°56.095 126.5 -999 298 -999
2006-11-27 07:26:13 51°13.599 2°56.094 126.5 -999 273 -999
2006-11-27 07:26:18 51°13.599 2°56.094 126.5 -999 299 -999
2006-11-27 07:26:23 51°13.599 2°56.094 126.4 -999 283 -999
2006-11-27 07:26:28 51°13.599 2°56.094 126.2 -999 297 -999
2006-11-27 07:26:33 51°13.599 2°56.094 126.1 -999 301 -999
2006-11-27 07:26:38 51°13.599 2°56.094 126 -999 304 -999
2006-11-27 07:26:43 51°13.599 2°56.094 125.9 -999 250 -999
2006-11-27 07:26:48 51°13.599 2°56.094 125.9 -999 107 -999
2006-11-27 07:26:53 51°13.599 2°56.094 125.9 -999 160 -999
2006-11-27 07:26:58 51°13.599 2°56.094 125.9 -999 136 -999
2006-11-27 07:27:03 51°13.599 2°56.094 125.9 -999 157 -999
2006-11-27 07:27:08 51°13.599 2°56.094 125.9 -999 114 -999
2006-11-27 07:27:13 51°13.599 2°56.094 126 -999 151 -999
2006-11-27 07:27:18 51°13.599 2°56.094 126.1 -999 142 -999
2006-11-27 07:27:23 51°13.599 2°56.094 126.2 -999 104 -999
2006-11-27 07:27:28 51°13.599 2°56.094 126.2 -999 145 -999
2006-11-27 07:27:33 51°13.599 2°56.094 126.4 -999 105 -999
2006-11-27 07:27:38 51°13.599 2°56.094 126.4 -999 127 -999
2006-11-27 07:27:43 51°13.599 2°56.094 126.4 -999 142 -999
2006-11-27 07:27:48 51°13.598 2°56.094 126.5 -999 153 -999
2006-11-27 07:27:53 51°13.598 2°56.094 126.5 -999 225 -999
2006-11-27 07:27:58 51°13.598 2°56.094 126.5 -999 122 -999
2006-11-27 07:28:03 51°13.598 2°56.094 126.5 -999 179 -999
2006-11-27 07:28:08 51°13.598 2°56.094 126.5 -999 33 -999
2006-11-27 07:28:13 51°13.598 2°56.094 126.5 -999 265 -999
2006-11-27 07:28:18 51°13.598 2°56.094 126.6 -999 196 -999
2006-11-27 07:28:23 51°13.598 2°56.094 126.6 -999 217 -999
2006-11-27 07:28:28 51°13.598 2°56.094 126.6 -999 276 -999
2006-11-27 07:28:33 51°13.598 2°56.093 126.6 -999 252 -999
2006-11-27 07:28:38 51°13.598 2°56.093 126.6 -999 271 -999
2006-11-27 07:28:43 51°13.598 2°56.093 126.5 -999 228 -999
2006-11-27 07:28:48 51°13.598 2°56.093 126.5 -999 67 -999
2006-11-27 07:28:53 51°13.598 2°56.093 126.4 -999 174 -999
2006-11-27 07:28:58 51°13.598 2°56.093 126.4 -999 133 -999
2006-11-27 07:29:03 51°13.598 2°56.093 126.4 -999 158 -999
2006-11-27 07:29:08 51°13.598 2°56.093 126.4 -999 216 -999
2006-11-27 07:29:13 51°13.598 2°56.093 126.4 -999 273 -999
2006-11-27 07:29:18 51°13.598 2°56.093 126.5 -999 250 -999
2006-11-27 07:29:23 51°13.598 2°56.093 126.6 -999 200 -999
2006-11-27 07:29:28 51°13.598 2°56.093 126.6 -999 228 -999
2006-11-27 07:29:33 51°13.598 2°56.093 126.6 -999 113 -999
2006-11-27 07:29:38 51°13.598 2°56.093 126.6 -999 25 -999
2006-11-27 07:29:43 51°13.598 2°56.093 126.6 -999 249 -999
2006-11-27 07:29:48 51°13.598 2°56.093 126.6 -999 240 -999
2006-11-27 07:29:53 51°13.598 2°56.094 126.6 -999 348 -999
2006-11-27 07:29:58 51°13.598 2°56.094 126.6 -999 265 -999
2006-11-27 07:30:03 51°13.598 2°56.094 126.6 -999 306 -999
2006-11-27 07:30:08 51°13.598 2°56.093 126.6 -999 291 -999
2006-11-27 07:30:13 51°13.598 2°56.093 126.5 -999 298 -999
2006-11-27 07:30:18 51°13.598 2°56.093 126.4 -999 306 -999
2006-11-27 07:30:23 51°13.598 2°56.093 126.3 -999 268 -999
2006-11-27 07:30:28 51°13.598 2°56.093 126.2 -999 65 -999
2006-11-27 07:30:33 51°13.598 2°56.093 126.2 -999 179 -999
2006-11-27 07:30:38 51°13.598 2°56.093 126.2 -999 -999 -999
2006-11-27 07:30:43 51°13.598 2°56.093 126.2 -999 321 -999
2006-11-27 07:30:48 51°13.598 2°56.092 126.2 -999 311 -999
2006-11-27 07:30:53 51°13.598 2°56.092 126.2 -999 214 -999
2006-11-27 07:30:58 51°13.597 2°56.092 126.2 -999 174 -999
2006-11-27 07:31:03 51°13.597 2°56.092 126.2 -999 283 -999
2006-11-27 07:31:08 51°13.597 2°56.092 126.1 -999 294 -999
2006-11-27 07:31:13 51°13.597 2°56.092 126.1 -999 147 -999
2006-11-27 07:31:18 51°13.597 2°56.092 126.1 -999 255 -999
2006-11-27 07:31:23 51°13.597 2°56.092 126.1 -999 357 -999
2006-11-27 07:31:28 51°13.597 2°56.093 126.1 -999 222 -999
2006-11-27 07:31:33 51°13.597 2°56.092 126.1 -999 168 -999
2006-11-27 07:31:38 51°13.597 2°56.092 126.1 -999 76 -999
2006-11-27 07:31:43 51°13.597 2°56.092 126.1 -999 124 -999
2006-11-27 07:31:48 51°13.597 2°56.092 126.1 -999 168 -999
2006-11-27 07:31:53 51°13.597 2°56.092 126.1 -999 174 -999
2006-11-27 07:31:58 51°13.596 2°56.093 126.2 -999 199 -999
2006-11-27 07:32:03 51°13.596 2°56.093 126.2 -999 194 -999
2006-11-27 07:32:08 51°13.596 2°56.093 126.2 -999 297 -999
2006-11-27 07:32:13 51°13.596 2°56.093 126.2 -999 318 -999
2006-11-27 07:32:18 51°13.596 2°56.093 126.2 -999 238 -999
2006-11-27 07:32:23 51°13.596 2°56.093 126.2 -999 255 -999
2006-11-27 07:32:28 51°13.596 2°56.092 126.2 -999 259 -999
2006-11-27 07:32:33 51°13.596 2°56.092 126.2 -999 294 -999
2006-11-27 07:32:38 51°13.596 2°56.092 126.1 -999 345 -999
2006-11-27 07:32:43 51°13.596 2°56.092 126 -999 63 -999
2006-11-27 07:32:48 51°13.596 2°56.092 126 -999 150 -999
2006-11-27 07:32:53 51°13.596 2°56.092 126 -999 148 -999
2006-11-27 07:32:58 51°13.596 2°56.092 126 -999 147 -999
2006-11-27 07:33:03 51°13.596 2°56.092 126 -999 165 -999
2006-11-27 07:33:08 51°13.596 2°56.092 126 -999 131 -999
2006-11-27 07:33:13 51°13.596 2°56.092 126 -999 98 -999
2006-11-27 07:33:18 51°13.596 2°56.092 126 -999 206 -999
2006-11-27 07:33:23 51°13.596 2°56.092 126 -999 86 -999
2006-11-27 07:33:28 51°13.596 2°56.092 126 -999 198 -999
2006-11-27 07:33:33 51°13.596 2°56.092 126 -999 228 -999
2006-11-27 07:33:38 51°13.596 2°56.092 126.1 -999 278 -999
2006-11-27 07:33:43 51°13.596 2°56.092 126.1 -999 205 -999
2006-11-27 07:33:48 51°13.596 2°56.092 126.1 -999 147 -999
2006-11-27 07:33:53 51°13.596 2°56.092 126.2 -999 208 -999
2006-11-27 07:33:58 51°13.596 2°56.092 126.2 -999 328 -999
2006-11-27 07:34:03 51°13.596 2°56.091 126.2 -999 247 -999
2006-11-27 07:34:08 51°13.596 2°56.092 126.2 -999 210 -999
2006-11-27 07:34:13 51°13.596 2°56.091 126.2 -999 239 -999
2006-11-27 07:34:18 51°13.596 2°56.092 126.2 -999 183 -999
2006-11-27 07:34:23 51°13.596 2°56.092 126.2 -999 160 -999
2006-11-27 07:34:28 51°13.596 2°56.092 126.2 -999 148 -999
2006-11-27 07:34:33 51°13.596 2°56.092 126.2 -999 166 -999
2006-11-27 07:34:38 51°13.596 2°56.092 126.3 -999 117 -999
2006-11-27 07:34:43 51°13.597 2°56.092 126.3 -999 168 -999
2006-11-27 07:34:48 51°13.597 2°56.092 126.3 -999 311 -999
2006-11-27 07:34:53 51°13.597 2°56.092 126.4 -999 284 -999
2006-11-27 07:34:58 51°13.597 2°56.092 126.4 -999 268 -999
2006-11-27 07:35:03 51°13.597 2°56.091 126.4 -999 312 -999
2006-11-27 07:35:08 51°13.597 2°56.092 126.4 -999 296 -999
2006-11-27 07:35:13 51°13.597 2°56.092 126.3 -999 308 -999
2006-11-27 07:35:18 51°13.597 2°56.092 126.2 -999 325 -999
2006-11-27 07:35:23 51°13.597 2°56.092 126.2 -999 303 -999
2006-11-27 07:35:28 51°13.597 2°56.092 126.2 -999 319 -999
2006-11-27 07:35:33 51°13.597 2°56.092 126.2 -999 280 -999
2006-11-27 07:35:38 51°13.597 2°56.092 126.2 -999 307 -999
2006-11-27 07:35:43 51°13.597 2°56.092 126.2 -999 171 -999
2006-11-27 07:35:48 51°13.597 2°56.092 126.2 -999 151 -999
2006-11-27 07:35:53 51°13.597 2°56.092 126.2 -999 203 -999
2006-11-27 07:35:58 51°13.597 2°56.092 126.2 -999 124 -999
2006-11-27 07:36:03 51°13.597 2°56.092 126.2 -999 156 -999
2006-11-27 07:36:08 51°13.597 2°56.092 126.3 -999 21 -999
2006-11-27 07:36:13 51°13.597 2°56.092 126.3 -999 248 -999
2006-11-27 07:36:18 51°13.596 2°56.092 126.3 -999 308 -999
2006-11-27 07:36:23 51°13.596 2°56.093 126.3 -999 239 -999
2006-11-27 07:36:28 51°13.596 2°56.093 126.3 -999 282 -999
2006-11-27 07:36:33 51°13.596 2°56.093 126.3 -999 300 -999
2006-11-27 07:36:38 51°13.597 2°56.093 126.3 -999 310 -999
2006-11-27 07:36:43 51°13.597 2°56.093 126.3 -999 352 -999
2006-11-27 07:36:48 51°13.597 2°56.093 126.3 -999 307 -999
2006-11-27 07:36:53 51°13.597 2°56.093 126.3 -999 295 -999
2006-11-27 07:36:58 51°13.597 2°56.093 126.4 -999 13 -999
2006-11-27 07:37:03 51°13.597 2°56.093 126.4 -999 251 -999
2006-11-27 07:37:08 51°13.597 2°56.093 126.4 -999 323 -999
2006-11-27 07:37:13 51°13.597 2°56.093 126.4 -999 274 -999
2006-11-27 07:37:18 51°13.597 2°56.093 126.4 -999 239 -999
2006-11-27 07:37:23 51°13.597 2°56.093 126.4 -999 292 -999
2006-11-27 07:37:28 51°13.597 2°56.093 126.4 -999 321 -999
2006-11-27 07:37:33 51°13.597 2°56.093 126.4 -999 302 -999
2006-11-27 07:37:38 51°13.597 2°56.093 126.4 -999 345 -999
2006-11-27 07:37:43 51°13.597 2°56.093 126.4 -999 284 -999
2006-11-27 07:37:48 51°13.597 2°56.093 126.4 -999 306 -999
2006-11-27 07:37:53 51°13.597 2°56.093 126.4 -999 314 -999
2006-11-27 07:37:58 51°13.597 2°56.093 126.4 -999 302 -999
2006-11-27 07:38:03 51°13.597 2°56.093 126.4 -999 327 -999
2006-11-27 07:38:08 51°13.597 2°56.093 126.4 -999 320 -999
2006-11-27 07:38:13 51°13.597 2°56.093 126.4 -999 305 -999
2006-11-27 07:38:18 51°13.597 2°56.093 126.4 -999 289 -999
2006-11-27 07:38:23 51°13.597 2°56.092 126.4 -999 308 -999
2006-11-27 07:38:28 51°13.597 2°56.092 126.3 -999 307 -999
2006-11-27 07:38:33 51°13.597 2°56.092 126.2 -999 312 -999
2006-11-27 07:38:38 51°13.597 2°56.092 126.2 -999 286 -999
2006-11-27 07:38:43 51°13.597 2°56.092 126.2 -999 292 -999
2006-11-27 07:38:48 51°13.597 2°56.092 126.2 -999 235 -999
2006-11-27 07:38:53 51°13.597 2°56.092 126.2 -999 333 -999
2006-11-27 07:38:58 51°13.597 2°56.092 126.2 -999 162 -999
2006-11-27 07:39:03 51°13.597 2°56.092 126.2 -999 345 -999
2006-11-27 07:39:08 51°13.597 2°56.093 126.2 -999 300 -999
2006-11-27 07:39:13 51°13.597 2°56.093 126.2 -999 284 -999
2006-11-27 07:39:18 51°13.597 2°56.093 126.2 -999 176 -999
2006-11-27 07:39:23 51°13.597 2°56.093 126.2 -999 121 -999
2006-11-27 07:39:28 51°13.597 2°56.093 126.2 -999 303 -999
2006-11-27 07:39:33 51°13.597 2°56.093 126.2 -999 272 -999
2006-11-27 07:39:38 51°13.597 2°56.093 126.2 -999 251 -999
2006-11-27 07:39:43 51°13.598 2°56.093 126.2 -999 311 -999
2006-11-27 07:39:48 51°13.598 2°56.094 126.2 -999 295 -999
2006-11-27 07:39:53 51°13.598 2°56.094 126.1 -999 301 -999
2006-11-27 07:39:58 51°13.598 2°56.094 126 -999 260 -999
2006-11-27 07:40:03 51°13.598 2°56.094 126 -999 270 -999
2006-11-27 07:40:08 51°13.597 2°56.093 125.9 -999 318 -999
2006-11-27 07:40:13 51°13.597 2°56.093 125.9 -999 293 -999
2006-11-27 07:40:18 51°13.597 2°56.093 125.9 -999 290 -999
2006-11-27 07:40:23 51°13.598 2°56.093 125.9 -999 237 -999
2006-11-27 07:40:28 51°13.598 2°56.094 125.9 -999 251 -999
2006-11-27 07:40:33 51°13.598 2°56.094 125.9 -999 -999 -999
2006-11-27 07:40:38 51°13.598 2°56.094 125.9 -999 269 -999
2006-11-27 07:40:43 51°13.598 2°56.094 125.9 -999 209 -999
2006-11-27 07:40:48 51°13.598 2°56.094 125.9 -999 19 -999
2006-11-27 07:40:53 51°13.598 2°56.094 125.9 -999 265 -999
2006-11-27 07:40:58 51°13.598 2°56.094 125.9 -999 241 -999
2006-11-27 07:41:03 51°13.599 2°56.094 125.9 -999 291 -999
2006-11-27 07:41:08 51°13.598 2°56.094 125.9 -999 288 -999
2006-11-27 07:41:13 51°13.598 2°56.094 125.9 -999 320 -999
2006-11-27 07:41:18 51°13.598 2°56.094 126 -999 260 -999
2006-11-27 07:41:23 51°13.598 2°56.094 125.9 -999 287 -999
2006-11-27 07:41:28 51°13.598 2°56.094 125.9 -999 310 -999
2006-11-27 07:41:33 51°13.598 2°56.094 125.9 -999 356 -999
2006-11-27 07:41:38 51°13.598 2°56.094 125.9 -999 85 -999
2006-11-27 07:41:43 51°13.598 2°56.094 125.9 -999 113 -999
2006-11-27 07:41:48 51°13.598 2°56.094 125.9 -999 155 -999
2006-11-27 07:41:53 51°13.598 2°56.094 125.9 -999 220 -999
2006-11-27 07:41:58 51°13.598 2°56.095 125.9 -999 190 -999
2006-11-27 07:42:03 51°13.598 2°56.095 126 -999 84 -999
2006-11-27 07:42:08 51°13.598 2°56.095 126.1 -999 112 -999
2006-11-27 07:42:13 51°13.598 2°56.095 126.1 -999 209 -999
2006-11-27 07:42:18 51°13.598 2°56.095 126.2 -999 123 -999
2006-11-27 07:42:23 51°13.598 2°56.095 126.2 -999 181 -999
2006-11-27 07:42:28 51°13.598 2°56.095 126.2 -999 357 -999
2006-11-27 07:42:33 51°13.598 2°56.095 126.3 -999 200 -999
2006-11-27 07:42:38 51°13.598 2°56.095 126.3 -999 280 -999
2006-11-27 07:42:43 51°13.598 2°56.095 126.3 -999 323 -999
2006-11-27 07:42:48 51°13.598 2°56.095 126.3 -999 297 -999
2006-11-27 07:42:53 51°13.598 2°56.095 126.3 -999 289 -999
2006-11-27 07:42:58 51°13.598 2°56.095 126.4 -999 295 -999
2006-11-27 07:43:03 51°13.598 2°56.095 126.4 -999 262 -999
2006-11-27 07:43:08 51°13.598 2°56.095 126.3 -999 260 -999
2006-11-27 07:43:13 51°13.598 2°56.095 126.3 -999 302 -999
2006-11-27 07:43:18 51°13.598 2°56.095 126.3 -999 290 -999
2006-11-27 07:43:23 51°13.598 2°56.095 126.3 -999 346 -999
2006-11-27 07:43:28 51°13.598 2°56.095 126.3 -999 316 -999
2006-11-27 07:43:33 51°13.598 2°56.095 126.3 -999 345 -999
2006-11-27 07:43:38 51°13.598 2°56.095 126.3 -999 82 -999
2006-11-27 07:43:43 51°13.598 2°56.095 126.3 -999 186 -999
2006-11-27 07:43:48 51°13.598 2°56.095 126.3 -999 105 -999
2006-11-27 07:43:53 51°13.598 2°56.095 126.4 -999 161 -999
2006-11-27 07:43:58 51°13.598 2°56.095 126.4 -999 130 -999
2006-11-27 07:44:03 51°13.598 2°56.095 126.5 -999 133 -999
2006-11-27 07:44:08 51°13.598 2°56.095 126.7 -999 338 -999
2006-11-27 07:44:13 51°13.598 2°56.095 126.8 -999 323 -999
2006-11-27 07:44:18 51°13.598 2°56.095 126.8 -999 302 -999
2006-11-27 07:44:23 51°13.599 2°56.095 126.8 -999 268 -999
2006-11-27 07:44:28 51°13.599 2°56.095 126.8 -999 329 -999
2006-11-27 07:44:33 51°13.599 2°56.095 126.8 -999 306 -999
2006-11-27 07:44:38 51°13.599 2°56.096 126.6 -999 328 -999
2006-11-27 07:44:43 51°13.599 2°56.096 126.5 -999 306 -999
2006-11-27 07:44:48 51°13.599 2°56.095 126.4 -999 315 -999
2006-11-27 07:44:53 51°13.599 2°56.095 126.3 -999 306 -999
2006-11-27 07:44:58 51°13.599 2°56.095 126.2 0.1 320 -999
2006-11-27 07:45:03 51°13.599 2°56.095 126 0.1 313 -999
2006-11-27 07:45:08 51°13.599 2°56.094 125.8 0.1 304 -999
2006-11-27 07:45:13 51°13.599 2°56.094 125.6 -999 308 -999
2006-11-27 07:45:18 51°13.599 2°56.094 125.5 -999 305 -999
2006-11-27 07:45:23 51°13.599 2°56.094 125.5 -999 287 -999
2006-11-27 07:45:28 51°13.599 2°56.094 125.5 -999 142 -999
2006-11-27 07:45:33 51°13.599 2°56.094 125.5 -999 165 -999
2006-11-27 07:45:38 51°13.599 2°56.095 125.5 -999 161 -999
2006-11-27 07:45:43 51°13.599 2°56.095 125.5 -999 128 -999
2006-11-27 07:45:48 51°13.599 2°56.095 125.6 -999 210 -999
2006-11-27 07:45:53 51°13.599 2°56.094 125.7 -999 176 -999
2006-11-27 07:45:58 51°13.598 2°56.094 125.8 -999 310 -999
2006-11-27 07:46:03 51°13.598 2°56.094 126 -999 348 -999
2006-11-27 07:46:08 51°13.598 2°56.094 126 -999 71 -999
2006-11-27 07:46:13 51°13.598 2°56.094 126.1 -999 230 -999
2006-11-27 07:46:18 51°13.598 2°56.094 126.1 -999 323 -999
2006-11-27 07:46:23 51°13.598 2°56.094 126.1 -999 300 -999
2006-11-27 07:46:28 51°13.598 2°56.094 126.1 -999 313 -999
2006-11-27 07:46:33 51°13.598 2°56.094 126.1 -999 306 -999
2006-11-27 07:46:38 51°13.598 2°56.094 126.1 -999 304 -999
2006-11-27 07:46:43 51°13.599 2°56.094 126 -999 319 -999
2006-11-27 07:46:48 51°13.599 2°56.094 126 -999 240 -999
2006-11-27 07:46:53 51°13.599 2°56.094 126 -999 311 -999
2006-11-27 07:46:58 51°13.599 2°56.094 126 -999 189 -999
2006-11-27 07:47:03 51°13.599 2°56.094 126 -999 167 -999
2006-11-27 07:47:08 51°13.599 2°56.094 126 -999 164 -999
2006-11-27 07:47:13 51°13.599 2°56.094 126.1 -999 193 -999
2006-11-27 07:47:18 51°13.599 2°56.094 126.1 -999 237 -999
2006-11-27 07:47:23 51°13.599 2°56.094 126.2 -999 1 -999
2006-11-27 07:47:28 51°13.599 2°56.094 126.2 -999 229 -999
2006-11-27 07:47:33 51°13.599 2°56.094 126.2 -999 86 -999
2006-11-27 07:47:38 51°13.599 2°56.094 126.2 -999 236 -999
2006-11-27 07:47:43 51°13.599 2°56.094 126.2 -999 235 -999
2006-11-27 07:47:48 51°13.599 2°56.094 126.2 -999 299 -999
2006-11-27 07:47:53 51°13.599 2°56.094 126.2 -999 323 -999
2006-11-27 07:47:58 51°13.599 2°56.094 126.2 -999 311 -999
2006-11-27 07:48:03 51°13.599 2°56.094 126.2 -999 335 -999
2006-11-27 07:48:08 51°13.599 2°56.094 126.2 -999 309 -999
2006-11-27 07:48:13 51°13.599 2°56.094 126.2 -999 249 -999
2006-11-27 07:48:18 51°13.599 2°56.094 126.2 -999 315 -999
2006-11-27 07:48:23 51°13.599 2°56.094 126.1 -999 258 -999
2006-11-27 07:48:28 51°13.599 2°56.094 126.1 -999 234 -999
2006-11-27 07:48:33 51°13.599 2°56.094 126.1 -999 242 -999
2006-11-27 07:48:38 51°13.599 2°56.094 126 -999 277 -999
2006-11-27 07:48:43 51°13.599 2°56.094 126 -999 236 -999
2006-11-27 07:48:48 51°13.599 2°56.095 126 -999 317 -999
2006-11-27 07:48:53 51°13.599 2°56.095 126 -999 291 -999
2006-11-27 07:48:58 51°13.599 2°56.095 126 -999 329 -999
2006-11-27 07:49:03 51°13.599 2°56.095 125.9 -999 289 -999
2006-11-27 07:49:08 51°13.599 2°56.095 125.9 -999 295 -999
2006-11-27 07:49:13 51°13.599 2°56.095 125.9 -999 263 -999
2006-11-27 07:49:18 51°13.599 2°56.095 125.8 -999 319 -999
2006-11-27 07:49:23 51°13.599 2°56.095 125.8 -999 297 -999
2006-11-27 07:49:28 51°13.599 2°56.095 125.7 -999 282 -999
2006-11-27 07:49:33 51°13.599 2°56.095 125.7 -999 331 -999
2006-11-27 07:49:38 51°13.599 2°56.095 125.7 -999 323 -999
2006-11-27 07:49:43 51°13.599 2°56.095 125.7 -999 319 -999
2006-11-27 07:49:48 51°13.599 2°56.095 125.7 -999 306 -999
2006-11-27 07:49:53 51°13.599 2°56.095 125.7 -999 326 -999
2006-11-27 07:49:58 51°13.599 2°56.095 125.7 -999 234 -999
2006-11-27 07:50:03 51°13.599 2°56.095 125.7 -999 256 -999
2006-11-27 07:50:08 51°13.599 2°56.095 125.7 -999 216 -999
2006-11-27 07:50:13 51°13.599 2°56.095 125.7 -999 112 -999
2006-11-27 07:50:18 51°13.599 2°56.095 125.7 -999 65 -999
2006-11-27 07:50:23 51°13.599 2°56.095 125.7 -999 97 -999
2006-11-27 07:50:28 51°13.599 2°56.095 125.7 -999 117 -999
2006-11-27 07:50:33 51°13.599 2°56.095 125.8 -999 216 -999
2006-11-27 07:50:38 51°13.599 2°56.095 125.8 -999 344 -999
2006-11-27 07:50:43 51°13.599 2°56.095 125.8 -999 327 -999
2006-11-27 07:50:48 51°13.599 2°56.095 125.8 -999 356 -999
2006-11-27 07:50:53 51°13.599 2°56.095 125.8 -999 296 -999
2006-11-27 07:50:58 51°13.599 2°56.095 125.9 -999 282 -999
2006-11-27 07:51:03 51°13.599 2°56.095 125.9 -999 203 -999
2006-11-27 07:51:08 51°13.599 2°56.095 125.9 -999 202 -999
2006-11-27 07:51:13 51°13.599 2°56.095 125.9 -999 230 -999
2006-11-27 07:51:18 51°13.599 2°56.094 125.9 -999 228 -999
2006-11-27 07:51:23 51°13.599 2°56.094 125.9 -999 213 -999
2006-11-27 07:51:28 51°13.599 2°56.094 125.9 -999 253 -999
2006-11-27 07:51:33 51°13.599 2°56.094 125.9 -999 274 -999
2006-11-27 07:51:38 51°13.598 2°56.094 125.9 -999 317 -999
2006-11-27 07:51:43 51°13.598 2°56.093 125.9 -999 276 -999
2006-11-27 07:51:48 51°13.598 2°56.093 125.9 -999 306 -999
2006-11-27 07:51:53 51°13.598 2°56.093 125.9 -999 292 -999
2006-11-27 07:51:58 51°13.598 2°56.093 125.9 -999 332 -999
2006-11-27 07:52:03 51°13.598 2°56.093 125.9 -999 324 -999
2006-11-27 07:52:08 51°13.598 2°56.093 125.9 -999 12 -999
2006-11-27 07:52:13 51°13.598 2°56.093 125.9 -999 13 -999
2006-11-27 07:52:18 51°13.598 2°56.093 125.9 -999 350 -999
2006-11-27 07:52:23 51°13.598 2°56.093 125.9 -999 320 -999
2006-11-27 07:52:28 51°13.598 2°56.093 125.9 -999 307 -999
2006-11-27 07:52:33 51°13.598 2°56.093 125.9 -999 344 -999
2006-11-27 07:52:38 51°13.598 2°56.093 125.9 -999 254 -999
2006-11-27 07:52:43 51°13.599 2°56.093 125.9 -999 345 -999
2006-11-27 07:52:48 51°13.599 2°56.093 125.9 -999 321 -999
2006-11-27 07:52:53 51°13.599 2°56.093 125.9 -999 298 -999
2006-11-27 07:52:58 51°13.599 2°56.093 125.9 -999 277 -999
2006-11-27 07:53:03 51°13.599 2°56.093 125.9 -999 339 -999
2006-11-27 07:53:08 51°13.599 2°56.094 125.9 -999 254 -999
2006-11-27 07:53:13 51°13.599 2°56.094 125.9 -999 224 -999
2006-11-27 07:53:18 51°13.599 2°56.094 125.9 -999 241 -999
2006-11-27 07:53:23 51°13.599 2°56.094 125.9 -999 270 -999
2006-11-27 07:53:28 51°13.599 2°56.094 125.9 0.1 265 -999
2006-11-27 07:53:33 51°13.599 2°56.094 125.9 -999 262 -999
2006-11-27 07:53:38 51°13.599 2°56.094 125.9 -999 265 -999
2006-11-27 07:53:43 51°13.599 2°56.094 125.9 -999 257 -999
2006-11-27 07:53:48 51°13.599 2°56.094 125.9 -999 268 -999
2006-11-27 07:53:53 51°13.599 2°56.094 125.9 -999 258 -999
2006-11-27 07:53:58 51°13.599 2°56.094 125.9 -999 262 -999
2006-11-27 07:54:03 51°13.599 2°56.095 125.9 -999 58 -999
2006-11-27 07:54:08 51°13.599 2°56.095 125.9 -999 60 -999
2006-11-27 07:54:13 51°13.599 2°56.095 125.9 -999 65 -999
2006-11-27 07:54:18 51°13.599 2°56.095 125.9 -999 16 -999
2006-11-27 07:54:23 51°13.599 2°56.095 125.9 -999 12 -999
2006-11-27 07:54:28 51°13.599 2°56.095 125.9 -999 12 -999
2006-11-27 07:54:33 51°13.599 2°56.095 125.9 -999 270 -999
2006-11-27 07:54:38 51°13.599 2°56.095 125.9 -999 56 -999
2006-11-27 07:54:43 51°13.599 2°56.095 125.9 -999 84 -999
2006-11-27 07:54:48 51°13.599 2°56.095 125.9 -999 92 -999
2006-11-27 07:54:53 51°13.599 2°56.095 125.9 -999 89 -999
2006-11-27 07:54:58 51°13.599 2°56.095 126 -999 276 -999
2006-11-27 07:55:03 51°13.599 2°56.095 126 -999 4 -999
2006-11-27 07:55:08 51°13.599 2°56.095 126 -999 49 -999
2006-11-27 07:55:13 51°13.599 2°56.095 126.1 -999 78 -999
2006-11-27 07:55:18 51°13.599 2°56.095 126.1 -999 354 -999
2006-11-27 07:55:23 51°13.599 2°56.095 126.2 -999 55 -999
2006-11-27 07:55:28 51°13.599 2°56.096 126.2 0.1 59 -999
2006-11-27 07:55:33 51°13.598 2°56.095 126.2 -999 195 -999
2006-11-27 07:55:38 51°13.598 2°56.095 126.2 -999 33 -999
2006-11-27 07:55:43 51°13.598 2°56.095 126.2 -999 104 -999
2006-11-27 07:55:48 51°13.598 2°56.095 126.2 0.1 268 -999
2006-11-27 07:55:53 51°13.599 2°56.095 126.2 -999 318 -999
2006-11-27 07:55:58 51°13.598 2°56.095 126.2 -999 7 -999
2006-11-27 07:56:03 51°13.598 2°56.095 126.2 -999 51 -999
2006-11-27 07:56:08 51°13.599 2°56.095 126.2 -999 313 -999
2006-11-27 07:56:13 51°13.599 2°56.095 126.2 -999 14 -999
2006-11-27 07:56:18 51°13.598 2°56.095 126.2 -999 264 -999
2006-11-27 07:56:23 51°13.598 2°56.095 126.1 0.1 255 -999
2006-11-27 07:56:28 51°13.599 2°56.095 126 -999 294 -999
2006-11-27 07:56:33 51°13.599 2°56.095 126 -999 345 -999
2006-11-27 07:56:38 51°13.599 2°56.095 126 -999 8 -999
2006-11-27 07:56:43 51°13.599 2°56.095 125.9 0.1 64 -999
2006-11-27 07:56:48 51°13.599 2°56.095 125.9 -999 78 -999
2006-11-27 07:56:53 51°13.599 2°56.095 125.9 -999 80 -999
2006-11-27 07:56:58 51°13.599 2°56.095 125.9 -999 244 -999
2006-11-27 07:57:03 51°13.599 2°56.095 125.9 0.1 226 -999
2006-11-27 07:57:08 51°13.599 2°56.095 125.9 -999 254 -999
2006-11-27 07:57:13 51°13.598 2°56.095 125.9 -999 126 -999
2006-11-27 07:57:18 51°13.598 2°56.095 125.9 -999 249 -999
2006-11-27 07:57:23 51°13.598 2°56.095 125.9 -999 43 -999
2006-11-27 07:57:28 51°13.598 2°56.095 125.9 -999 70 -999
2006-11-27 07:57:33 51°13.598 2°56.095 125.9 -999 33 -999
2006-11-27 07:57:38 51°13.598 2°56.095 125.9 -999 356 -999
2006-11-27 07:57:43 51°13.598 2°56.095 126 -999 36 -999
2006-11-27 07:57:48 51°13.598 2°56.095 126 -999 40 -999
2006-11-27 07:57:53 51°13.598 2°56.095 126 -999 250 -999
2006-11-27 07:57:58 51°13.598 2°56.095 126 -999 37 -999
2006-11-27 07:58:03 51°13.598 2°56.095 126 -999 351 -999
2006-11-27 07:58:08 51°13.598 2°56.095 126.1 -999 61 -999
2006-11-27 07:58:13 51°13.598 2°56.095 126.1 -999 98 -999
2006-11-27 07:58:18 51°13.598 2°56.095 126.2 -999 177 -999
2006-11-27 07:58:23 51°13.598 2°56.095 126.2 -999 17 -999
2006-11-27 07:58:28 51°13.598 2°56.095 126.3 -999 58 -999
2006-11-27 07:58:33 51°13.598 2°56.095 126.3 -999 230 -999
2006-11-27 07:58:38 51°13.598 2°56.095 126.4 -999 230 -999
2006-11-27 07:58:43 51°13.598 2°56.095 126.4 -999 272 -999
2006-11-27 07:58:48 51°13.598 2°56.095 126.4 -999 16 -999
2006-11-27 07:58:53 51°13.598 2°56.096 126.5 -999 300 -999
2006-11-27 07:58:58 51°13.598 2°56.095 126.5 -999 310 -999
2006-11-27 07:59:03 51°13.598 2°56.095 126.6 -999 291 -999
2006-11-27 07:59:08 51°13.598 2°56.095 126.6 -999 353 -999
2006-11-27 07:59:13 51°13.598 2°56.095 126.4 -999 24 -999
2006-11-27 07:59:18 51°13.598 2°56.095 126.4 0.1 42 -999
2006-11-27 07:59:23 51°13.598 2°56.095 126.4 -999 22 -999
2006-11-27 07:59:28 51°13.598 2°56.095 126.3 -999 313 -999
2006-11-27 07:59:33 51°13.598 2°56.095 126.3 -999 270 -999
2006-11-27 07:59:38 51°13.598 2°56.095 126.2 -999 270 -999
2006-11-27 07:59:43 51°13.598 2°56.095 126.1 -999 299 -999
2006-11-27 07:59:47 51°13.598 2°56.095 126.1 -999 355 -999
2006-11-27 07:59:51 51°13.598 2°56.095 126.1 -999 10 7.5
2006-11-27 07:59:54 51°13.598 2°56.095 126.1 -999 296 5.5
2006-11-27 07:59:59 51°13.598 2°56.095 126.1 -999 241 7.5
2006-11-27 08:00:03 51°13.598 2°56.095 126.1 -999 343 7
2006-11-27 08:00:08 51°13.598 2°56.095 126.1 -999 111 -999
2006-11-27 08:00:14 51°13.598 2°56.095 126.1 -999 189 52.5
2006-11-27 08:00:19 51°13.598 2°56.095 126.1 -999 247 7.2
2006-11-27 08:00:24 51°13.598 2°56.095 126.2 -999 65 6.8
2006-11-27 08:00:29 51°13.598 2°56.095 126.3 -999 209 -999
2006-11-27 08:00:35 51°13.598 2°56.096 126.4 -999 213 53.9
2006-11-27 08:00:39 51°13.598 2°56.095 126.4 -999 206 7.3
2006-11-27 08:00:43 51°13.598 2°56.095 126.5 -999 287 -999
2006-11-27 08:00:49 51°13.598 2°56.095 126.5 -999 10 7.2
2006-11-27 08:00:55 51°13.598 2°56.095 126.5 -999 32 52.8
2006-11-27 08:00:59 51°13.598 2°56.095 126.5 -999 277 -999
2006-11-27 08:01:04 51°13.598 2°56.095 126.5 -999 288 7
2006-11-27 08:01:09 51°13.598 2°56.095 126.5 -999 2 7
2006-11-27 08:01:14 51°13.598 2°56.095 126.4 0.1 33 7
2006-11-27 08:01:19 51°13.598 2°56.095 126.4 -999 30 -999
2006-11-27 08:01:24 51°13.598 2°56.095 126.2 -999 36 41.6
2006-11-27 08:01:29 51°13.598 2°56.095 126.2 -999 15 51
2006-11-27 08:01:34 51°13.598 2°56.095 126.2 -999 -999 7.4
2006-11-27 08:01:39 51°13.598 2°56.095 126.1 -999 14 7.1
2006-11-27 08:01:45 51°13.598 2°56.095 126 -999 340 7
2006-11-27 08:01:49 51°13.598 2°56.095 126 -999 17 -999
2006-11-27 08:01:55 51°13.598 2°56.095 126 -999 298 7.2
2006-11-27 08:01:59 51°13.598 2°56.095 125.9 -999 264 46.6
2006-11-27 08:02:04 51°13.598 2°56.095 125.9 -999 263 7
2006-11-27 08:02:09 51°13.598 2°56.095 125.9 -999 24 7.1
2006-11-27 08:02:14 51°13.598 2°56.095 125.9 -999 33 7.4
2006-11-27 08:02:19 51°13.598 2°56.095 125.9 -999 255 7.3
2006-11-27 08:02:24 51°13.599 2°56.096 125.9 -999 8 7.1
2006-11-27 08:02:29 51°13.599 2°56.096 125.9 -999 32 7.3
2006-11-27 08:02:34 51°13.599 2°56.096 125.9 -999 40 5.3
2006-11-27 08:02:39 51°13.599 2°56.095 126 -999 249 7.1
2006-11-27 08:02:44 51°13.598 2°56.095 126 -999 13 7.2
2006-11-27 08:02:49 51°13.598 2°56.095 126 -999 355 7.1
2006-11-27 08:02:54 51°13.598 2°56.095 126 -999 345 7.2
2006-11-27 08:02:59 51°13.598 2°56.095 126 -999 8 7.4
2006-11-27 08:03:04 51°13.598 2°56.095 126 -999 359 7.1
2006-11-27 08:03:09 51°13.598 2°56.095 126 -999 42 6.9
2006-11-27 08:03:14 51°13.598 2°56.095 126 -999 23 7
2006-11-27 08:03:19 51°13.599 2°56.095 126 0.1 24 -999
2006-11-27 08:03:24 51°13.599 2°56.095 126 -999 332 7
2006-11-27 08:03:29 51°13.599 2°56.095 126 -999 342 6.9
2006-11-27 08:03:34 51°13.599 2°56.095 125.9 -999 333 7
2006-11-27 08:03:39 51°13.599 2°56.095 125.9 -999 312 7
2006-11-27 08:03:44 51°13.599 2°56.095 125.8 -999 14 6.9
2006-11-27 08:03:49 51°13.599 2°56.095 125.8 -999 331 7.3
2006-11-27 08:03:54 51°13.599 2°56.095 125.8 -999 314 -999
2006-11-27 08:03:59 51°13.599 2°56.095 125.7 -999 302 6.9
2006-11-27 08:04:03 51°13.599 2°56.095 125.7 -999 199 -999
2006-11-27 08:04:09 51°13.599 2°56.095 125.7 -999 203 -999
2006-11-27 08:04:15 51°13.599 2°56.095 125.7 -999 197 -999
2006-11-27 08:04:19 51°13.599 2°56.095 125.7 -999 216 47
2006-11-27 08:04:23 51°13.599 2°56.095 125.7 -999 224 7
2006-11-27 08:04:29 51°13.599 2°56.096 125.7 -999 99 40.8
2006-11-27 08:04:34 51°13.599 2°56.096 125.7 -999 221 6.9
2006-11-27 08:04:39 51°13.599 2°56.096 125.7 -999 300 -999
2006-11-27 08:04:45 51°13.599 2°56.096 125.7 -999 327 -999
2006-11-27 08:04:49 51°13.599 2°56.095 125.7 -999 285 -999
2006-11-27 08:04:54 51°13.599 2°56.095 125.7 -999 326 6.9
2006-11-27 08:04:59 51°13.599 2°56.096 125.7 -999 330 -999
2006-11-27 08:05:04 51°13.599 2°56.096 125.7 -999 41 50.7
2006-11-27 08:05:09 51°13.599 2°56.096 125.7 -999 32 -999
2006-11-27 08:05:15 51°13.6 2°56.097 125.8 -999 10 -999
2006-11-27 08:05:19 51°13.6 2°56.098 125.8 0.1 34 7.1
2006-11-27 08:05:24 51°13.6 2°56.097 125.8 -999 15 5.3
2006-11-27 08:05:29 51°13.6 2°56.098 125.8 -999 229 6.9
2006-11-27 08:05:34 51°13.6 2°56.098 125.7 -999 287 7.1
2006-11-27 08:05:39 51°13.601 2°56.099 125.7 -999 41 6.9
2006-11-27 08:05:44 51°13.601 2°56.099 125.7 -999 9 7.1
2006-11-27 08:05:49 51°13.601 2°56.099 125.7 -999 265 7.1
2006-11-27 08:05:55 51°13.601 2°56.099 125.7 -999 327 -999
2006-11-27 08:05:59 51°13.601 2°56.098 125.7 -999 322 7.3
2006-11-27 08:06:05 51°13.6 2°56.098 125.7 -999 48 -999
2006-11-27 08:06:09 51°13.6 2°56.098 125.7 -999 203 7.1
2006-11-27 08:06:14 51°13.6 2°56.098 125.7 -999 279 7.1
2006-11-27 08:06:19 51°13.6 2°56.098 125.7 0.1 43 53.6
2006-11-27 08:06:23 51°13.6 2°56.097 125.7 -999 45 7.1
2006-11-27 08:06:29 51°13.6 2°56.097 125.7 -999 207 7
2006-11-27 08:06:35 51°13.6 2°56.097 125.7 -999 254 -999
2006-11-27 08:06:39 51°13.6 2°56.097 125.7 -999 87 6.9
2006-11-27 08:06:45 51°13.6 2°56.097 125.7 -999 87 -999
2006-11-27 08:06:50 51°13.599 2°56.096 125.7 -999 213 44.1
2006-11-27 08:06:55 51°13.599 2°56.096 125.8 -999 320 -999
2006-11-27 08:06:59 51°13.599 2°56.096 125.8 0.1 6 7.1
2006-11-27 08:07:05 51°13.599 2°56.096 125.8 -999 339 50.2
2006-11-27 08:07:09 51°13.599 2°56.096 125.8 -999 313 7.2
2006-11-27 08:07:15 51°13.599 2°56.096 125.8 0.1 329 7.2
2006-11-27 08:07:19 51°13.599 2°56.095 125.9 -999 340 -999
2006-11-27 08:07:25 51°13.599 2°56.095 125.9 -999 314 6.8
2006-11-27 08:07:29 51°13.599 2°56.095 125.9 -999 300 -999
2006-11-27 08:07:35 51°13.599 2°56.094 125.9 -999 349 47.6
2006-11-27 08:07:39 51°13.598 2°56.095 125.8 -999 285 6.9
2006-11-27 08:07:44 51°13.597 2°56.095 125.8 -999 346 -999
2006-11-27 08:07:49 51°13.597 2°56.095 125.7 0.1 346 7.1
2006-11-27 08:07:54 51°13.599 2°56.095 125.7 -999 333 6.9
2006-11-27 08:07:59 51°13.599 2°56.095 125.6 -999 328 7.1
2006-11-27 08:08:04 51°13.599 2°56.095 125.6 -999 298 5.2
2006-11-27 08:08:09 51°13.599 2°56.095 125.6 -999 162 7
2006-11-27 08:08:14 51°13.599 2°56.095 125.6 -999 119 51.2
2006-11-27 08:08:19 51°13.599 2°56.095 125.6 -999 342 -999
2006-11-27 08:08:24 51°13.599 2°56.095 125.7 -999 52 6.7
2006-11-27 08:08:29 51°13.601 2°56.095 125.7 -999 169 53.2
2006-11-27 08:08:34 51°13.601 2°56.095 125.8 -999 332 7.1
2006-11-27 08:08:39 51°13.6 2°56.095 125.9 -999 28 7.3
2006-11-27 08:08:43 51°13.6 2°56.095 125.9 -999 258 7.3
2006-11-27 08:08:49 51°13.6 2°56.095 125.9 -999 305 6.8
2006-11-27 08:08:55 51°13.6 2°56.095 125.9 -999 312 -999
2006-11-27 08:09:00 51°13.6 2°56.095 125.9 -999 301 6.8
2006-11-27 08:09:04 51°13.6 2°56.095 125.9 -999 320 -999
2006-11-27 08:09:09 51°13.601 2°56.095 125.9 -999 296 7.1
2006-11-27 08:09:14 51°13.601 2°56.095 125.8 -999 317 7
2006-11-27 08:09:19 51°13.601 2°56.096 125.7 -999 283 6.9
2006-11-27 08:09:24 51°13.601 2°56.096 125.7 -999 329 -999
2006-11-27 08:09:29 51°13.6 2°56.096 125.7 -999 235 6.8
2006-11-27 08:09:34 51°13.6 2°56.095 125.7 -999 158 7.1
2006-11-27 08:09:39 51°13.6 2°56.095 125.8 -999 325 5.3
2006-11-27 08:09:43 51°13.6 2°56.095 125.8 -999 172 -999
2006-11-27 08:09:50 51°13.6 2°56.095 125.8 -999 96 -999
2006-11-27 08:09:55 51°13.6 2°56.095 125.9 -999 97 -999
2006-11-27 08:09:59 51°13.6 2°56.095 125.9 -999 216 7.3
2006-11-27 08:10:04 51°13.6 2°56.095 125.9 -999 326 7.3
2006-11-27 08:10:09 51°13.6 2°56.095 125.9 -999 276 7.3
2006-11-27 08:10:14 51°13.6 2°56.095 125.9 -999 293 7.1
2006-11-27 08:10:19 51°13.6 2°56.095 125.9 -999 325 7.1
2006-11-27 08:10:23 51°13.6 2°56.095 125.9 -999 200 7.1
2006-11-27 08:10:29 51°13.599 2°56.094 125.8 -999 6 -999
2006-11-27 08:10:34 51°13.599 2°56.094 125.8 -999 295 7.1
2006-11-27 08:10:39 51°13.599 2°56.094 125.8 -999 348 -999
2006-11-27 08:10:43 51°13.599 2°56.094 125.8 -999 21 47.9
2006-11-27 08:10:49 51°13.599 2°56.094 125.8 -999 193 7
2006-11-27 08:10:54 51°13.599 2°56.094 125.8 -999 185 42.5
2006-11-27 08:10:59 51°13.599 2°56.094 125.8 -999 150 -999
2006-11-27 08:11:05 51°13.599 2°56.094 125.8 -999 182 -999
2006-11-27 08:11:10 51°13.599 2°56.094 125.7 -999 285 53
2006-11-27 08:11:14 51°13.599 2°56.094 125.6 -999 302 50.5
2006-11-27 08:11:19 51°13.599 2°56.094 125.6 -999 334 6.9
2006-11-27 08:11:24 51°13.599 2°56.094 125.5 -999 323 7.1
2006-11-27 08:11:29 51°13.599 2°56.094 125.5 -999 307 -999
2006-11-27 08:11:34 51°13.599 2°56.094 125.4 0.1 320 7
2006-11-27 08:11:39 51°13.599 2°56.094 125.3 -999 309 6.8
2006-11-27 08:11:45 51°13.599 2°56.094 125.1 -999 204 -999
2006-11-27 08:11:49 51°13.599 2°56.094 124.9 -999 192 -999
2006-11-27 08:11:54 51°13.599 2°56.094 124.9 -999 180 6.9
2006-11-27 08:11:59 51°13.599 2°56.094 124.8 -999 303 6.9
2006-11-27 08:12:05 51°13.599 2°56.094 124.8 -999 311 -999
2006-11-27 08:12:10 51°13.599 2°56.094 124.8 -999 17 -999
2006-11-27 08:12:15 51°13.599 2°56.094 124.8 -999 341 -999
2006-11-27 08:12:19 51°13.599 2°56.094 124.8 -999 354 6.9
2006-11-27 08:12:23 51°13.599 2°56.094 124.8 -999 338 7
2006-11-27 08:12:29 51°13.599 2°56.094 124.8 -999 186 -999
2006-11-27 08:12:34 51°13.599 2°56.094 124.9 -999 151 7
2006-11-27 08:12:39 51°13.599 2°56.094 125 0.1 119 6.9
2006-11-27 08:12:44 51°13.599 2°56.094 125.3 0.1 127 6.8
2006-11-27 08:12:49 51°13.599 2°56.094 125.5 -999 137 7.1
2006-11-27 08:12:54 51°13.599 2°56.094 125.8 -999 337 7.3
2006-11-27 08:12:59 51°13.599 2°56.095 125.9 -999 335 7
2006-11-27 08:13:05 51°13.599 2°56.095 126 -999 116 50.5
2006-11-27 08:13:09 51°13.599 2°56.095 126.1 0.1 108 7.3
2006-11-27 08:13:14 51°13.599 2°56.095 126.2 0.1 123 7.2
2006-11-27 08:13:19 51°13.599 2°56.095 126.5 0.1 94 7.3
2006-11-27 08:13:24 51°13.599 2°56.095 126.7 0.1 159 7.2
2006-11-27 08:13:29 51°13.599 2°56.096 126.8 0.1 103 -999
2006-11-27 08:13:34 51°13.599 2°56.095 127 -999 267 7.4
2006-11-27 08:13:39 51°13.599 2°56.095 127.1 0.1 284 -999
2006-11-27 08:13:45 51°13.599 2°56.095 127.3 -999 262 7.6
2006-11-27 08:13:48 51°13.599 2°56.095 127.5 -999 356 7
2006-11-27 08:13:54 51°13.598 2°56.095 127.6 -999 184 -999
2006-11-27 08:13:59 51°13.598 2°56.095 127.6 -999 83 -999
2006-11-27 08:14:05 51°13.598 2°56.096 127.6 -999 89 -999
2006-11-27 08:14:09 51°13.598 2°56.096 127.4 -999 322 49.3
2006-11-27 08:14:15 51°13.598 2°56.095 127.4 -999 293 -999
2006-11-27 08:14:19 51°13.597 2°56.095 127.3 -999 217 -999
2006-11-27 08:14:24 51°13.597 2°56.095 127.3 -999 307 -999
2006-11-27 08:14:29 51°13.597 2°56.095 127.3 -999 303 47.4
2006-11-27 08:14:34 51°13.596 2°56.095 127.3 -999 225 51
2006-11-27 08:14:39 51°13.596 2°56.095 127.3 -999 45 -999
2006-11-27 08:14:45 51°13.596 2°56.095 127.3 -999 319 -999
2006-11-27 08:14:50 51°13.596 2°56.095 127.3 -999 299 -999
2006-11-27 08:14:55 51°13.596 2°56.095 127.3 -999 337 35.1
2006-11-27 08:14:59 51°13.596 2°56.095 127.3 -999 229 36.5
2006-11-27 08:15:03 51°13.596 2°56.095 127.3 -999 352 -999
2006-11-27 08:15:09 51°13.596 2°56.095 127.3 -999 319 -999
2006-11-27 08:15:15 51°13.596 2°56.095 127.3 -999 312 -999
2006-11-27 08:15:19 51°13.596 2°56.095 127.2 -999 310 7.2
2006-11-27 08:15:24 51°13.596 2°56.095 127.2 -999 316 -999
2006-11-27 08:15:29 51°13.596 2°56.095 127.2 -999 317 6.8
2006-11-27 08:15:34 51°13.596 2°56.095 127.2 -999 73 6.8
2006-11-27 08:15:39 51°13.596 2°56.095 127.2 -999 295 45.4
2006-11-27 08:15:45 51°13.597 2°56.095 127.2 -999 265 6.8
2006-11-27 08:15:49 51°13.597 2°56.096 127.2 -999 49 -999
2006-11-27 08:15:54 51°13.597 2°56.096 127.2 -999 327 -999
2006-11-27 08:15:59 51°13.597 2°56.096 127.2 -999 357 7.2
2006-11-27 08:16:03 51°13.596 2°56.095 127.2 -999 299 7.2
2006-11-27 08:16:09 51°13.593 2°56.094 127.2 -999 343 7.2
2006-11-27 08:16:14 51°13.592 2°56.094 127.2 -999 160 7.1
2006-11-27 08:16:19 51°13.592 2°56.094 127.2 -999 353 5.3
2006-11-27 08:16:24 51°13.592 2°56.095 127.2 -999 300 7
2006-11-27 08:16:29 51°13.593 2°56.095 127.2 -999 316 -999
2006-11-27 08:16:34 51°13.593 2°56.095 127.2 -999 317 46.3
2006-11-27 08:16:39 51°13.594 2°56.095 127.2 -999 268 46.7
2006-11-27 08:16:44 51°13.594 2°56.095 127.1 -999 303 -999
2006-11-27 08:16:49 51°13.594 2°56.095 127.1 -999 314 7.1
2006-11-27 08:16:54 51°13.595 2°56.095 127.1 -999 346 5.3
2006-11-27 08:16:59 51°13.595 2°56.095 127.1 -999 295 7.1
2006-11-27 08:17:03 51°13.595 2°56.095 127.1 -999 309 7
2006-11-27 08:17:09 51°13.595 2°56.095 127.1 -999 280 6.8
2006-11-27 08:17:15 51°13.594 2°56.095 127.1 -999 40 -999
2006-11-27 08:17:19 51°13.594 2°56.095 127.1 -999 27 7.2
2006-11-27 08:17:24 51°13.594 2°56.095 127.1 -999 341 -999
2006-11-27 08:17:30 51°13.595 2°56.095 127.1 -999 284 -999
2006-11-27 08:17:34 51°13.595 2°56.095 127.1 -999 296 -999
2006-11-27 08:17:39 51°13.595 2°56.096 127 -999 261 -999
2006-11-27 08:17:44 51°13.596 2°56.096 127 -999 281 -999
2006-11-27 08:17:49 51°13.596 2°56.096 127.1 -999 312 7.2
2006-11-27 08:17:55 51°13.597 2°56.096 127.1 -999 10 -999
2006-11-27 08:18:00 51°13.597 2°56.096 127.1 -999 54 -999
2006-11-27 08:18:05 51°13.597 2°56.096 127 -999 287 -999
2006-11-27 08:18:09 51°13.597 2°56.096 127 -999 252 46.5
2006-11-27 08:18:14 51°13.598 2°56.097 127 -999 278 -999
2006-11-27 08:18:19 51°13.598 2°56.097 127 -999 314 7.3
2006-11-27 08:18:25 51°13.598 2°56.097 127 -999 58 7.2
2006-11-27 08:18:29 51°13.598 2°56.097 127.1 -999 85 7
2006-11-27 08:18:35 51°13.598 2°56.097 127.1 -999 325 -999
2006-11-27 08:18:40 51°13.599 2°56.097 127.1 -999 338 7
2006-11-27 08:18:44 51°13.599 2°56.097 127.1 -999 313 7.2
2006-11-27 08:18:50 51°13.599 2°56.097 127.1 -999 293 -999
2006-11-27 08:18:55 51°13.599 2°56.097 127.1 -999 148 7.2
2006-11-27 08:18:59 51°13.599 2°56.097 127.1 -999 16 5.3
2006-11-27 08:19:05 51°13.599 2°56.097 127.1 -999 8 -999
2006-11-27 08:19:09 51°13.599 2°56.097 127 -999 294 7.4
2006-11-27 08:19:14 51°13.599 2°56.097 127 -999 257 7.2
2006-11-27 08:19:19 51°13.599 2°56.097 127 -999 243 7
2006-11-27 08:19:24 51°13.599 2°56.097 127 -999 271 7
2006-11-27 08:19:29 51°13.6 2°56.097 127 -999 238 -999
2006-11-27 08:19:35 51°13.6 2°56.097 127 -999 321 -999
2006-11-27 08:19:39 51°13.6 2°56.097 127 -999 298 51.3
2006-11-27 08:19:44 51°13.6 2°56.097 127.1 -999 328 -999
2006-11-27 08:19:50 51°13.599 2°56.097 127.1 -999 237 -999
2006-11-27 08:19:55 51°13.598 2°56.097 127.1 -999 121 47
2006-11-27 08:19:59 51°13.598 2°56.097 127.1 -999 71 45.4
2006-11-27 08:20:05 51°13.598 2°56.097 127.1 -999 243 -999
2006-11-27 08:20:09 51°13.597 2°56.096 127.1 -999 254 7.2
2006-11-27 08:20:14 51°13.597 2°56.096 127.1 -999 316 6.8
2006-11-27 08:20:19 51°13.597 2°56.096 127.1 -999 343 48.5
2006-11-27 08:20:25 51°13.597 2°56.096 127.1 -999 309 7.3
2006-11-27 08:20:29 51°13.597 2°56.096 127.1 -999 313 44.2
2006-11-27 08:20:34 51°13.597 2°56.096 127.1 -999 294 -999
2006-11-27 08:20:40 51°13.597 2°56.096 127.1 -999 200 -999
2006-11-27 08:20:45 51°13.597 2°56.096 127.1 -999 337 7.2
2006-11-27 08:20:49 51°13.597 2°56.096 127.2 0.1 344 7.2
2006-11-27 08:20:55 51°13.597 2°56.096 127.2 -999 217 -999
2006-11-27 08:20:59 51°13.597 2°56.097 127.2 -999 246 7.2
2006-11-27 08:21:03 51°13.598 2°56.097 127.2 -999 302 7.2
2006-11-27 08:21:08 51°13.598 2°56.097 127.2 -999 9 -999
2006-11-27 08:21:15 51°13.598 2°56.097 127.2 -999 38 -999
2006-11-27 08:21:19 51°13.598 2°56.097 127.2 -999 35 7.4
2006-11-27 08:21:25 51°13.598 2°56.097 127.2 -999 290 45.1
2006-11-27 08:21:29 51°13.598 2°56.097 127.2 -999 295 -999
2006-11-27 08:21:34 51°13.598 2°56.097 127.2 -999 245 -999
2006-11-27 08:21:39 51°13.598 2°56.097 127.2 -999 241 43.2
2006-11-27 08:21:44 51°13.598 2°56.097 127.3 -999 354 -999
2006-11-27 08:21:49 51°13.597 2°56.097 127.3 -999 342 -999
2006-11-27 08:21:55 51°13.597 2°56.097 127.3 -999 326 7.1
2006-11-27 08:21:59 51°13.597 2°56.097 127.3 -999 -999 -999
2006-11-27 08:22:05 51°13.597 2°56.097 127.3 -999 317 -999
2006-11-27 08:22:09 51°13.597 2°56.097 127.3 -999 314 6.8
2006-11-27 08:22:15 51°13.598 2°56.097 127.3 -999 32 7.3
2006-11-27 08:22:19 51°13.598 2°56.097 127.3 -999 262 -999
2006-11-27 08:22:25 51°13.598 2°56.097 127.3 -999 143 -999
2006-11-27 08:22:29 51°13.598 2°56.097 127.3 -999 345 -999
2006-11-27 08:22:34 51°13.599 2°56.097 127.3 -999 286 -999
2006-11-27 08:22:39 51°13.599 2°56.097 127.3 -999 346 -999
2006-11-27 08:22:45 51°13.599 2°56.097 127.3 -999 22 -999
2006-11-27 08:22:49 51°13.598 2°56.097 127.3 -999 340 7.1
2006-11-27 08:22:54 51°13.598 2°56.096 127.3 -999 37 45.7